Time;durP1;ratioP1;P1;durP2;ratioP2;P2;SDS_P1;SDS_P2;PMS_P1;PMS_P2;Temp;Humidity;BMP_temperature;BMP_pressure;BME280_temperature;BME280_humidity;BME280_pressure;Samples;Min_cycle;Max_cycle;Signal;HPM_P1;HPM_P2
2023/02/09 00:02:19;;;;;;;8.45;4.47;;;;;;;;;;5055702;28;20507;-72
2023/02/09 00:05:23;;;;;;;10.20;4.65;;;;;;;;;;5055190;28;20033;-72
2023/02/09 00:08:28;;;;;;;10.60;4.68;;;;;;;;;;5056020;28;20051;-72
2023/02/09 00:14:57;;;;;;;13.82;5.35;;;;;;;;;;5055112;28;20424;-72
2023/02/09 00:18:01;;;;;;;8.80;4.50;;;;;;;;;;5055161;28;20044;-72
2023/02/09 00:21:09;;;;;;;11.88;4.78;;;;;;;;;;5054533;28;20041;-71
2023/02/09 00:24:24;;;;;;;10.52;5.22;;;;;;;;;;5054358;28;20068;-71
2023/02/09 00:27:29;;;;;;;8.65;4.90;;;;;;;;;;5055984;28;20052;-72
2023/02/09 00:30:34;;;;;;;9.57;4.07;;;;;;;;;;5054154;28;20049;-72
2023/02/09 00:33:43;;;;;;;9.18;4.25;;;;;;;;;;5054689;28;20041;-71
2023/02/09 00:36:48;;;;;;;8.48;4.75;;;;;;;;;;5053401;28;20040;-72
2023/02/09 00:39:53;;;;;;;16.58;5.40;;;;;;;;;;5055155;28;20037;-71
2023/02/09 00:43:05;;;;;;;9.32;4.57;;;8.90;71.00;;;;;;5055188;28;20048;-72
2023/02/09 00:46:15;;;;;;;8.40;4.57;;;;;;;;;;5053635;28;20043;-70
2023/02/09 00:49:23;;;;;;;8.82;4.55;;;;;;;;;;5055617;28;20049;-71
2023/02/09 00:52:28;;;;;;;8.90;4.15;;;;;;;;;;5053923;28;20033;-73
2023/02/09 00:55:33;;;;;;;9.50;5.22;;;;;;;;;;5054501;28;20037;-72
2023/02/09 00:58:38;;;;;;;10.82;4.38;;;;;;;;;;5054129;28;20477;-72
2023/02/09 01:01:45;;;;;;;10.43;4.65;;;;;;;;;;5054626;28;20064;-72
2023/02/09 01:04:52;;;;;;;11.95;4.80;;;;;;;;;;5053200;28;20048;-72
2023/02/09 01:07:56;;;;;;;11.45;4.25;;;;;;;;;;5055397;28;20124;-72
2023/02/09 01:11:07;;;;;;;9.73;4.25;;;;;;;;;;5054409;28;20500;-72
2023/02/09 01:14:11;;;;;;;9.50;4.32;;;;;;;;;;5053173;28;20036;-72
2023/02/09 01:17:15;;;;;;;12.10;4.45;;;;;;;;;;5051625;28;20041;-72
2023/02/09 01:20:20;;;;;;;12.48;4.75;;;;;;;;;;5051830;28;20524;-73
2023/02/09 01:23:24;;;;;;;14.77;4.07;;;;;;;;;;5051332;28;20040;-73
2023/02/09 01:26:28;;;;;;;8.07;4.68;;;;;;;;;;5053028;28;20052;-71
2023/02/09 01:29:32;;;;;;;12.15;4.82;;;;;;;;;;5051124;28;20049;-71
2023/02/09 01:32:37;;;;;;;7.45;4.75;;;;;;;;;;5051388;28;20056;-72
2023/02/09 01:35:41;;;;;;;9.50;4.07;;;;;;;;;;5050194;28;20049;-73
2023/02/09 01:38:46;;;;;;;10.82;4.45;;;;;;;;;;5052765;28;20453;-72
2023/02/09 01:41:50;;;;;;;10.55;5.15;;;;;;;;;;5051371;28;20068;-71
2023/02/09 01:45:00;;;;;;;6.45;4.35;;;;;;;;;;5051181;28;20033;-72
2023/02/09 01:48:06;;;;;;;8.05;4.18;;;;;;;;;;5050313;28;20449;-72
2023/02/09 01:51:11;;;;;;;7.45;4.05;;;;;;;;;;5053358;28;20037;-72
2023/02/09 01:54:18;;;;;;;7.20;4.20;;;;;;;;;;5050755;28;20052;-72
2023/02/09 01:57:40;;;;;;;11.90;5.20;;;;;;;;;;5050402;28;20033;-72
2023/02/09 02:00:45;;;;;;;9.63;4.40;;;;;;;;;;5050044;28;20410;-72
2023/02/09 02:03:51;;;;;;;8.13;4.57;;;;;;;;;;5051996;28;20365;-73
2023/02/09 02:06:57;;;;;;;10.07;4.35;;;;;;;;;;5053230;28;20041;-72
2023/02/09 02:10:02;;;;;;;9.43;4.65;;;;;;;;;;5056652;28;20068;-73
2023/02/09 02:13:06;;;;;;;15.30;6.25;;;;;;;;;;5058002;28;20045;-72
2023/02/09 02:16:16;;;;;;;19.92;8.90;;;;;;;;;;5056970;28;20665;-73
2023/02/09 02:19:24;;;;;;;12.68;4.80;;;;;;;;;;5058792;28;20048;-72
2023/02/09 02:22:40;;;;;;;11.90;5.55;;;;;;;;;;5058727;28;20512;-72
2023/02/09 02:25:51;;;;;;;11.20;4.60;;;;;;;;;;5057705;28;20041;-72
2023/02/09 02:29:08;;;;;;;12.98;4.40;;;;;;;;;;5058486;28;20545;-73
2023/02/09 02:32:18;;;;;;;10.88;4.82;;;;;;;;;;5058291;28;20036;-73
2023/02/09 02:35:23;;;;;;;10.85;4.65;;;;;;;;;;5055720;28;20096;-72
2023/02/09 02:38:52;;;;;;;15.70;5.63;;;;;;;;;;5057635;28;20048;-72
2023/02/09 02:45:50;;;;;;;10.93;5.13;;;;;;;;;;5053862;28;20489;-72
2023/02/09 02:48:57;;;;;;;13.10;4.93;;;;;;;;;;5057028;28;20408;-72
2023/02/09 02:52:06;;;;;;;8.55;4.90;;;;;;;;;;5056438;28;20060;-72
2023/02/09 02:55:13;;;;;;;14.18;5.72;;;;;;;;;;5056667;28;20485;-73
2023/02/09 02:58:20;;;;;;;9.95;5.60;;;;;;;;;;5056602;28;20417;-73
2023/02/09 03:01:27;;;;;;;7.20;4.88;;;;;;;;;;5055826;28;20041;-73
2023/02/09 03:04:33;;;;;;;9.65;4.95;;;;;;;;;;5055348;28;20032;-73
2023/02/09 03:07:38;;;;;;;7.97;4.82;;;;;;;;;;5054639;28;20041;-72
2023/02/09 03:10:43;;;;;;;8.10;4.30;;;;;;;;;;5057279;28;20041;-72
2023/02/09 03:13:50;;;;;;;8.38;5.47;;;;;;;;;;5055201;28;20055;-73
2023/02/09 03:17:12;;;;;;;9.73;4.35;;;;;;;;;;5055250;28;20049;-72
2023/02/09 03:20:21;;;;;;;7.70;4.80;;;;;;;;;;5054219;28;20037;-73
2023/02/09 03:23:37;;;;;;;8.32;4.15;;;;;;;;;;5054775;28;20040;-73
2023/02/09 03:26:48;;;;;;;16.17;5.50;;;;;;;;;;5055419;28;20045;-73
2023/02/09 03:29:56;;;;;;;6.93;4.27;;;8.20;75.10;;;;;;5054388;28;20052;-73
2023/02/09 03:33:02;;;;;;;10.32;4.57;;;7.90;75.00;;;;;;5055169;28;20286;-72
2023/02/09 03:36:09;;;;;;;7.80;4.22;;;;;;;;;;5055375;28;20044;-72
2023/02/09 03:39:13;;;;;;;9.40;4.15;;;;;;;;;;5053589;28;20033;-71
2023/02/09 03:42:20;;;;;;;6.70;3.92;;;;;;;;;;5056148;28;20060;-72
2023/02/09 03:45:25;;;;;;;6.53;3.60;;;;;;;;;;5055539;28;20037;-72
2023/02/09 03:48:31;;;;;;;6.78;3.42;;;;;;;;;;5054630;28;20048;-73
2023/02/09 03:51:36;;;;;;;4.63;3.05;;;;;;;;;;5055964;28;20485;-72
2023/02/09 03:54:42;;;;;;;6.93;3.38;;;;;;;;;;5054780;28;20480;-72
2023/02/09 03:57:46;;;;;;;9.57;3.63;;;;;;;;;;5054551;28;20488;-72
2023/02/09 04:00:51;;;;;;;5.55;3.60;;;;;;;;;;5054920;28;20377;-72
2023/02/09 04:03:57;;;;;;;7.80;3.55;;;;;;;;;;5053984;28;20049;-70
2023/02/09 04:07:02;;;;;;;7.68;3.83;;;;;;;;;;5052874;28;20033;-72
2023/02/09 04:10:09;;;;;;;5.90;4.00;;;;;;;;;;5053469;28;20044;-71
2023/02/09 04:13:13;;;;;;;7.68;4.20;;;;;;;;;;5052704;28;20454;-71
2023/02/09 04:16:18;;;;;;;6.45;4.05;;;;;;;;;;5052261;28;20049;-72
2023/02/09 04:19:22;;;;;;;5.93;4.35;;;;;;;;;;5052405;28;20033;-73
2023/02/09 04:22:26;;;;;;;6.55;4.20;;;;;;;;;;5052675;28;20037;-70
2023/02/09 04:25:30;;;;;;;7.78;4.38;;;;;;;;;;5052154;28;20036;-72
2023/02/09 04:28:35;;;;;;;7.15;3.97;;;;;;;;;;5052016;28;20558;-73
2023/02/09 04:31:39;;;;;;;7.25;4.20;;;;;;;;;;5050569;28;20132;-74
2023/02/09 04:34:43;;;;;;;6.78;4.32;;;;;;;;;;5052003;28;20041;-73
2023/02/09 04:37:47;;;;;;;5.25;3.70;;;;;;;;;;5052091;28;20037;-72
2023/02/09 04:40:52;;;;;;;6.72;3.90;;;;;;;;;;5052371;28;20040;-72
2023/02/09 04:43:57;;;;;;;7.30;4.05;;;;;;;;;;5051847;28;20036;-72
2023/02/09 04:47:01;;;;;;;7.53;3.80;;;;;;;;;;5050987;28;20029;-72
2023/02/09 04:50:06;;;;;;;7.00;4.80;;;;;;;;;;5051712;28;20041;-72
2023/02/09 04:53:11;;;;;;;8.80;4.80;;;;;;;;;;5052350;28;20041;-73
2023/02/09 04:56:16;;;;;;;9.07;5.03;;;;;;;;;;5052361;28;20041;-71
2023/02/09 04:59:37;;;;;;;7.80;4.72;;;;;;;;;;5051634;28;20052;-72
2023/02/09 05:02:42;;;;;;;6.78;4.60;;;;;;;;;;5051702;28;20044;-71
2023/02/09 05:05:47;;;;;;;8.52;4.75;;;;;;;;;;5051360;28;20037;-71
2023/02/09 05:08:51;;;;;;;7.97;4.50;;;;;;;;;;5052388;28;20048;-71
2023/02/09 05:11:55;;;;;;;12.73;4.68;;;;;;;;;;5051640;28;20037;-72
2023/02/09 05:15:00;;;;;;;7.47;4.60;;;;;;;;;;5051334;28;20059;-71
2023/02/09 05:18:07;;;;;;;11.38;5.95;;;;;;;;;;5054820;28;20037;-73
2023/02/09 05:21:13;;;;;;;14.32;7.88;;;;;;;;;;5051446;28;20047;-72
2023/02/09 05:24:17;;;;;;;16.45;9.10;;;;;;;;;;5050823;28;20044;-72
2023/02/09 05:27:21;;;;;;;16.63;7.65;;;;;;;;;;5050393;28;20076;-72
2023/02/09 05:30:26;;;;;;;8.48;5.47;;;;;;;;;;5050871;28;20505;-72
2023/02/09 05:33:30;;;;;;;9.75;5.60;;;;;;;;;;5050264;28;20029;-72
2023/02/09 05:36:34;;;;;;;10.32;6.22;;;;;;;;;;5050741;28;20037;-72
2023/02/09 05:39:39;;;;;;;9.40;5.45;;;;;;;;;;5050757;28;20044;-72
2023/02/09 05:42:43;;;;;;;6.78;4.65;;;;;;;;;;5049800;28;20394;-72
2023/02/09 05:45:47;;;;;;;11.27;4.78;;;;;;;;;;5050584;28;20037;-72
2023/02/09 05:48:52;;;;;;;8.10;4.40;;;;;;;;;;5050825;28;20428;-72
2023/02/09 05:51:56;;;;;;;7.25;4.70;;;;;;;;;;5050973;28;20041;-73
2023/02/09 05:55:00;;;;;;;8.20;3.95;;;;;;;;;;5056018;28;20469;-72
2023/02/09 05:58:05;;;;;;;7.15;4.32;;;;;;;;;;5053356;28;20044;-72
2023/02/09 06:01:09;;;;;;;8.50;4.30;;;;;;;;;;5051736;28;20040;-73
2023/02/09 06:04:14;;;;;;;10.65;4.53;;;;;;;;;;5052862;28;20033;-71
2023/02/09 06:07:19;;;;;;;6.43;4.20;;;;;;;;;;5054874;28;20568;-72
2023/02/09 06:10:23;;;;;;;9.55;5.00;;;;;;;;;;5054484;28;20041;-71
2023/02/09 06:13:28;;;;;;;9.98;4.82;;;;;;;;;;5054668;28;20029;-71
2023/02/09 06:16:32;;;;;;;6.63;4.35;;;;;;;;;;5053761;28;20045;-72
2023/02/09 06:19:37;;;;;;;6.18;4.03;;;;;;;;;;5053459;28;20025;-72
2023/02/09 06:22:42;;;;;;;7.20;4.93;;;;;;;;;;5051884;28;20041;-72
2023/02/09 06:25:51;;;;;;;6.93;4.13;;;;;;;;;;5054952;28;20033;-72
2023/02/09 06:28:56;;;;;;;8.70;4.70;;;;;;;;;;5052233;28;20401;-72
2023/02/09 06:32:02;;;;;;;6.57;4.47;;;;;;;;;;5052359;28;20029;-71
2023/02/09 06:35:06;;;;;;;7.00;4.50;;;;;;;;;;5051576;28;20041;-68
2023/02/09 06:38:12;;;;;;;8.00;4.63;;;;;;;;;;5050590;28;20037;-70
2023/02/09 06:41:16;;;;;;;8.05;5.40;;;;;;;;;;5052387;28;20041;-72
2023/02/09 06:44:21;;;;;;;7.78;4.60;;;;;;;;;;5051583;28;20037;-70
2023/02/09 06:47:25;;;;;;;8.23;5.40;;;;;;;;;;5052303;28;20037;-72
2023/02/09 06:50:31;;;;;;;12.02;5.22;;;;;;;;;;5050222;28;20045;-69
2023/02/09 06:53:36;;;;;;;18.92;5.63;;;;;;;;;;5052740;28;20044;-69
2023/02/09 06:56:40;;;;;;;11.05;6.00;;;;;;;;;;5054683;28;20055;-69
2023/02/09 06:59:44;;;;;;;11.43;5.85;;;;;;;;;;5054150;28;20407;-70
2023/02/09 07:02:48;;;;;;;7.45;5.30;;;;;;;;;;5054176;28;20044;-70
2023/02/09 07:05:53;;;;;;;10.90;6.18;;;;;;;;;;5053877;28;20040;-70
2023/02/09 07:08:58;;;;;;;10.68;6.82;;;;;;;;;;5054408;28;20048;-70
2023/02/09 07:12:02;;;;;;;13.30;6.50;;;;;;;;;;5054902;28;20052;-69
2023/02/09 07:15:07;;;;;;;9.23;5.80;;;;;;;;;;5053200;28;20052;-69
2023/02/09 07:18:12;;;;;;;12.55;6.38;;;;;;;;;;5056627;28;20041;-69
2023/02/09 07:21:18;;;;;;;10.27;6.40;;;;;;;;;;5056022;28;20040;-69
2023/02/09 07:24:23;;;;;;;11.05;6.63;;;;;;;;;;5054080;28;20052;-69
2023/02/09 07:27:27;;;;;;;11.45;6.63;;;;;;;;;;5052583;28;20040;-70
2023/02/09 07:30:32;;;;;;;11.50;6.45;;;;;;;;;;5052882;28;20052;-69
2023/02/09 07:33:36;;;;;;;13.50;6.75;;;;;;;;;;5053437;28;20366;-70
2023/02/09 07:36:40;;;;;;;11.95;6.85;;;;;;;;;;5055699;28;20052;-70
2023/02/09 07:39:45;;;;;;;9.05;5.80;;;;;;;;;;5054098;28;20036;-71
2023/02/09 07:42:50;;;;;;;14.43;7.28;;;;;;;;;;5053213;28;20049;-71
2023/02/09 07:45:59;;;;;;;15.55;7.07;;;7.10;82.00;;;;;;5054273;28;20044;-70
2023/02/09 07:49:04;;;;;;;12.43;7.25;;;;;;;;;;5052744;28;20072;-70
2023/02/09 07:52:08;;;;;;;14.80;7.03;;;;;;;;;;5054437;28;20040;-70
2023/02/09 07:55:12;;;;;;;13.07;6.25;;;;;;;;;;5053865;28;20397;-70
2023/02/09 07:58:18;;;;;;;15.27;6.95;;;;;;;;;;5053153;28;20056;-71
2023/02/09 08:01:24;;;;;;;10.30;5.32;;;;;;;;;;5055129;28;20040;-69
2023/02/09 08:04:29;;;;;;;10.15;5.40;;;;;;;;;;5053578;28;20051;-70
2023/02/09 08:07:33;;;;;;;9.05;5.30;;;;;;;;;;5052986;28;20052;-70
2023/02/09 08:10:39;;;;;;;15.77;5.22;;;5.70;81.30;;;;;;5052791;28;20049;-70
2023/02/09 08:13:43;;;;;;;10.25;5.70;;;;;;;;;;5053631;28;20044;-70
2023/02/09 08:16:49;;;;;;;8.20;5.32;;;;;;;;;;5052920;28;20060;-70
2023/02/09 08:20:00;;;;;;;11.00;5.47;;;;;;;;;;5052823;28;20033;-69
2023/02/09 08:23:08;;;;;;;12.80;5.40;;;;;;;;;;5028761;28;20044;-70
2023/02/09 08:26:13;;;;;;;11.07;5.85;;;;;;;;;;5052802;28;20052;-70
2023/02/09 08:29:17;;;;;;;9.38;5.57;;;;;;;;;;5052746;28;20155;-71
2023/02/09 08:32:22;;;;;;;11.85;6.18;;;;;;;;;;5053139;28;20041;-70
2023/02/09 08:35:26;;;;;;;11.50;6.53;;;;;;;;;;5052448;28;20059;-71
2023/02/09 08:38:30;;;;;;;11.30;5.50;;;;;;;;;;5052935;28;20048;-71
2023/02/09 08:41:35;;;;;;;12.65;6.55;;;;;;;;;;5052798;28;20063;-71
2023/02/09 08:44:39;;;;;;;7.80;5.57;;;;;;;;;;5052246;28;20123;-69
2023/02/09 08:47:43;;;;;;;9.98;5.80;;;;;;;;;;5051855;28;20029;-71
2023/02/09 08:50:48;;;;;;;10.15;5.97;;;;;;;;;;5052082;28;20048;-71
2023/02/09 08:53:53;;;;;;;17.75;5.70;;;;;;;;;;5054087;28;20397;-70
2023/02/09 08:56:58;;;;;;;18.88;7.10;;;;;;;;;;5051545;28;20405;-69
2023/02/09 09:00:03;;;;;;;11.15;6.20;;;;;;;;;;5051863;28;20060;-70
2023/02/09 09:03:07;;;;;;;15.10;7.53;;;;;;;;;;5053497;28;20040;-70
2023/02/09 09:06:12;;;;;;;10.02;5.90;;;;;;;;;;5052053;28;20048;-71
2023/02/09 09:09:16;;;;;;;9.40;6.00;;;;;;;;;;5051587;28;20052;-70
2023/02/09 09:12:20;;;;;;;11.93;6.10;;;;;;;;;;5051719;28;20037;-71
2023/02/09 09:15:25;;;;;;;11.10;6.53;;;;;;;;;;5051703;28;20174;-71
2023/02/09 09:18:30;;;;;;;13.93;7.22;;;;;;;;;;5051530;28;20392;-71
2023/02/09 09:21:34;;;;;;;11.75;6.82;;;;;;;;;;5052050;28;20044;-70
2023/02/09 09:24:41;;;;;;;11.25;7.03;;;;;;;;;;5051724;28;20048;-71
2023/02/09 09:27:45;;;;;;;16.17;6.97;;;;;;;;;;5052355;28;20044;-69
2023/02/09 09:30:50;;;;;;;11.18;6.60;;;;;;;;;;5052292;28;20413;-70
2023/02/09 09:33:54;;;;;;;11.25;6.45;;;;;;;;;;5051993;28;20496;-70
2023/02/09 09:36:59;;;;;;;11.43;7.05;;;;;;;;;;5053462;28;20068;-69
2023/02/09 09:40:04;;;;;;;10.05;6.40;;;;;;;;;;5052374;28;20054;-70
2023/02/09 09:43:18;;;;;;;15.80;7.22;;;7.60;78.60;;;;;;5051888;28;20044;-70
2023/02/09 09:46:34;;;;;;;11.30;7.35;;;7.10;78.10;;;;;;5052105;28;20039;-70
2023/02/09 09:49:38;;;;;;;12.15;7.32;;;;;;;;;;5052364;28;20059;-70
2023/02/09 09:52:48;;;;;;;16.63;7.00;;;7.50;77.80;;;;;;5050713;28;20043;-71
2023/02/09 09:55:58;;;;;;;13.45;7.40;;;5.60;77.60;;;;;;5051123;28;20044;-71
2023/02/09 09:59:02;;;;;;;14.10;8.48;;;7.70;77.90;;;;;;5051830;28;20044;-70
2023/02/09 10:02:22;;;;;;;11.98;7.38;;;8.40;77.80;;;;;;5052017;28;20504;-68
2023/02/09 10:05:29;;;;;;;13.55;7.45;;;7.70;76.70;;;;;;5051020;28;20420;-69
2023/02/09 10:08:46;;;;;;;13.27;7.65;;;7.80;76.60;;;;;;5051241;28;20048;-71
2023/02/09 10:11:54;;;;;;;16.08;8.15;;;;;;;;;;5051305;28;20052;-69
2023/02/09 10:14:59;;;;;;;16.27;6.90;;;;;;;;;;5050727;28;20052;-69
2023/02/09 10:18:15;;;;;;;10.02;6.85;;;8.40;77.50;;;;;;5053287;28;20067;-71
2023/02/09 10:21:21;;;;;;;10.73;7.35;;;7.90;76.30;;;;;;5051380;28;20056;-69
2023/02/09 10:24:31;;;;;;;14.32;7.65;;;6.80;76.00;;;;;;5051117;28;20048;-70
2023/02/09 10:27:35;;;;;;;21.58;8.55;;;;;;;;;;5050608;28;20052;-70
2023/02/09 10:30:40;;;;;;;17.00;8.48;;;;;;;;;;5042312;28;20052;-71
2023/02/09 10:33:45;;;;;;;15.88;8.02;;;;;;;;;;5055274;28;20397;-69
2023/02/09 10:37:14;;;;;;;14.45;8.68;;;7.70;76.00;;;;;;5056606;28;20044;-68
2023/02/09 10:40:23;;;;;;;13.23;7.85;;;;;;;;;;5057078;28;20388;-70
2023/02/09 10:43:33;;;;;;;14.00;7.60;;;7.70;76.60;;;;;;5054487;28;20040;-69
2023/02/09 10:46:39;;;;;;;12.52;7.95;;;;;;;;;;5054616;28;20068;-70
2023/02/09 10:49:43;;;;;;;18.05;9.15;;;;;;;;;;5055054;28;20056;-69
2023/02/09 10:53:03;;;;;;;13.13;8.00;;;7.70;76.50;;;;;;5054191;28;20040;-71
2023/02/09 10:56:18;;;;;;;17.67;8.73;;;;;;;;;;5055070;28;20044;-68
2023/02/09 10:59:33;;;;;;;15.15;8.52;;;5.50;75.80;;;;;;5042271;28;20052;-68
2023/02/09 11:02:40;;;;;;;13.00;6.95;;;;;;;;;;5055630;28;20052;-67
2023/02/09 11:05:46;;;;;;;15.27;9.20;;;;;;;;;;5054264;28;20055;-69
2023/02/09 11:09:01;;;;;;;20.55;9.13;;;;;;;;;;5054121;28;20107;-70
2023/02/09 11:12:06;;;;;;;17.75;9.27;;;;;;;;;;5054467;28;20459;-67
2023/02/09 11:15:19;;;;;;;14.43;9.25;;;;;;;;;;5053832;28;20408;-67
2023/02/09 11:18:27;;;;;;;25.92;10.75;;;8.40;76.30;;;;;;5055530;28;20056;-70
2023/02/09 11:22:09;;;;;;;15.15;8.90;;;7.60;76.00;;;;;;5055203;28;20056;-68
2023/02/09 11:25:19;;;;;;;17.50;10.00;;;;;;;;;;5054963;28;20052;-66
2023/02/09 11:28:58;;;;;;;17.20;9.43;;;7.70;75.30;;;;;;5054117;28;20146;-69
2023/02/09 11:32:07;;;;;;;17.17;9.93;;;;;;;;;;5053724;28;20127;-66
2023/02/09 11:35:15;;;;;;;20.25;9.30;;;9.90;75.70;;;;;;5054028;28;20048;-69
2023/02/09 11:38:44;;;;;;;16.40;8.90;;;9.10;75.30;;;;;;5053586;28;20063;-67
2023/02/09 11:45:26;;;;;;;15.18;8.40;;;8.90;73.90;;;;;;5053240;28;20389;-67
2023/02/09 11:48:39;;;;;;;12.07;7.95;;;7.80;72.90;;;;;;5053325;28;20051;-67
2023/02/09 11:51:46;;;;;;;20.45;9.13;;;8.40;73.70;;;;;;5053629;28;20534;-68
2023/02/09 11:54:53;;;;;;;11.65;7.40;;;7.90;72.60;;;;;;5053694;28;20123;-68
2023/02/09 11:58:25;;;;;;;13.25;7.40;;;8.50;73.20;;;;;;5053364;28;20063;-68
2023/02/09 12:01:37;;;;;;;13.15;6.78;;;;;;;;;;5051978;28;20048;-68
2023/02/09 12:04:54;;;;;;;13.18;6.38;;;7.70;71.20;;;;;;5053265;28;20052;-68
2023/02/09 12:08:33;;;;;;;10.48;6.25;;;7.80;71.80;;;;;;5052979;28;20155;-68
2023/02/09 12:11:52;;;;;;;13.63;6.32;;;8.80;72.30;;;;;;5052759;28;20073;-69
2023/02/09 12:14:59;;;;;;;12.40;6.57;;;8.70;72.50;;;;;;5052597;28;20051;-72
2023/02/09 12:18:35;;;;;;;15.60;6.82;;;8.20;72.20;;;;;;5052865;28;20036;-68
2023/02/09 12:21:41;;;;;;;14.40;7.05;;;;;;;;;;5052840;28;20381;-69
2023/02/09 12:25:03;;;;;;;12.45;6.45;;;;;;;;;;5052897;28;20052;-68
2023/02/09 12:28:07;;;;;;;13.32;6.13;;;;;;;;;;5052823;28;20516;-68
2023/02/09 12:31:12;;;;;;;9.98;5.70;;;9.90;73.80;;;;;;5052473;28;20048;-68
2023/02/09 12:34:23;;;;;;;9.95;5.45;;;9.10;73.50;;;;;;5052514;28;20064;-68
2023/02/09 12:37:28;;;;;;;10.45;5.32;;;;;;;;;;5052562;28;20045;-68
2023/02/09 12:40:37;;;;;;;14.18;6.32;;;7.90;73.20;;;;;;5052953;28;20048;-71
2023/02/09 12:43:43;;;;;;;17.02;6.97;;;11.80;75.30;;;;;;5051645;28;20508;-69
2023/02/09 12:46:53;;;;;;;12.35;5.82;;;7.90;72.60;;;;;;5051683;28;20040;-69
2023/02/09 12:50:02;;;;;;;9.35;5.30;;;;;;;;;;5052028;28;20056;-68
2023/02/09 12:53:21;;;;;;;13.40;5.20;;;9.60;72.10;;;;;;5051748;28;20037;-68
2023/02/09 12:56:27;;;;;;;9.07;5.20;;;;;;;;;;5052121;28;20060;-68
2023/02/09 12:59:32;;;;;;;12.05;6.43;;;;;;;;;;5052253;28;20045;-67
2023/02/09 13:02:49;;;;;;;15.50;7.35;;;;;;;;;;5051913;28;20036;-67
2023/02/09 13:05:56;;;;;;;9.00;4.60;;;;;;;;;;5051749;28;20056;-68
2023/02/09 13:09:04;;;;;;;13.55;6.55;;;7.70;71.50;;;;;;5052421;28;20037;-68
2023/02/09 13:12:20;;;;;;;14.30;8.70;;;9.20;73.00;;;;;;5052320;28;20084;-67
2023/02/09 13:15:30;;;;;;;14.85;8.25;;;9.70;73.80;;;;;;5051656;28;20389;-68
2023/02/09 13:19:13;;;;;;;13.68;7.38;;;7.30;72.00;;;;;;5052099;28;20048;-69
2023/02/09 13:22:49;;;;;;;14.27;7.97;;;8.10;72.40;;;;;;5051522;28;20036;-69
2023/02/09 13:26:05;;;;;;;13.07;7.60;;;6.40;71.20;;;;;;5052140;28;20495;-68
2023/02/09 13:29:12;;;;;;;9.23;5.60;;;8.30;69.80;;;;;;5052338;28;20085;-68
2023/02/09 13:32:52;;;;;;;13.00;8.07;;;8.30;71.20;;;;;;5052444;28;20115;-69
2023/02/09 13:35:59;;;;;;;17.45;6.85;;;;;;;;;;5052268;28;20052;-69
2023/02/09 13:39:12;;;;;;;16.02;8.50;;;6.60;70.80;;;;;;5052119;28;20048;-67
2023/02/09 13:42:21;;;;;;;13.80;7.90;;;;;;;;;;5051274;28;20036;-67
2023/02/09 13:45:45;;;;;;;8.95;5.22;;;8.70;70.60;;;;;;5052148;28;20052;-68
2023/02/09 13:48:49;;;;;;;18.13;8.60;;;;;;;;;;5053138;28;20041;-67
2023/02/09 13:52:15;;;;;;;16.00;9.80;;;8.10;72.00;;;;;;5050646;28;20488;-67
2023/02/09 13:55:22;;;;;;;16.17;8.25;;;8.70;72.40;;;;;;5051029;28;20340;-68
2023/02/09 13:58:34;;;;;;;12.10;6.28;;;7.90;71.40;;;;;;5051745;28;20040;-70
2023/02/09 14:01:47;;;;;;;16.15;8.02;;;7.90;71.80;;;;;;5052708;28;20056;-66
2023/02/09 14:04:57;;;;;;;12.05;6.00;;;8.10;71.00;;;;;;5049430;28;20040;-67
2023/02/09 14:08:03;;;;;;;14.95;6.82;;;;;;;;;;5050740;28;20052;-67
2023/02/09 14:11:20;;;;;;;13.98;7.07;;;;;;;;;;5049842;28;20052;-67
2023/02/09 14:14:28;;;;;;;12.20;7.10;;;;;;;;;;5049956;28;20044;-67
2023/02/09 14:17:34;;;;;;;15.27;8.25;;;8.30;74.20;;;;;;5048698;28;20040;-68
2023/02/09 14:20:38;;;;;;;15.10;9.40;;;;;;;;;;5049002;28;20048;-69
2023/02/09 14:23:44;;;;;;;14.68;8.65;;;8.90;75.70;;;;;;5048103;28;20044;-72
2023/02/09 14:27:15;;;;;;;15.73;8.57;;;8.10;75.00;;;;;;5051078;28;20488;-70
2023/02/09 14:30:23;;;;;;;17.13;8.40;;;6.50;74.20;;;;;;5051821;28;20412;-70
2023/02/09 14:33:32;;;;;;;17.63;7.68;;;9.40;76.40;;;;;;5051910;28;20041;-68
2023/02/09 14:36:37;;;;;;;16.38;8.25;;;7.40;75.70;;;;;;5039396;28;20388;-70
2023/02/09 14:40:23;;;;;;;15.00;8.30;;;7.90;76.60;;;;;;5051837;28;20044;-67
2023/02/09 14:43:31;;;;;;;18.02;8.40;;;;;;;;;;5050162;28;20040;-69
2023/02/09 14:46:49;;;;;;;18.20;9.05;;;10.50;78.50;;;;;;5051307;28;20040;-69
2023/02/09 14:49:56;;;;;;;18.15;8.80;;;7.50;78.10;;;;;;5051343;28;20047;-69
2023/02/09 14:53:06;;;;;;;18.88;8.82;;;;;;;;;;5051428;28;20052;-68
2023/02/09 14:56:29;;;;;;;18.13;9.02;;;8.10;79.10;;;;;;5050738;28;20048;-68
2023/02/09 14:59:33;;;;;;;16.58;9.85;;;;;;;;;;5051912;28;20389;-69
2023/02/09 15:02:38;;;;;;;14.43;8.88;;;;;;;;;;5051157;28;20044;-68
2023/02/09 15:05:42;;;;;;;13.93;8.43;;;;;;;;;;5052668;28;20051;-69
2023/02/09 15:08:46;;;;;;;18.00;10.35;;;7.80;80.30;;;;;;5050153;28;20036;-69
2023/02/09 15:12:03;;;;;;;15.80;9.40;;;;;;;;;;5051407;28;20080;-69
2023/02/09 15:15:16;;;;;;;12.70;8.60;;;;;;;;;;5052426;28;20496;-69
2023/02/09 15:18:28;;;;;;;12.95;8.23;;;6.50;80.50;;;;;;5054266;28;20558;-67
2023/02/09 15:21:32;;;;;;;;;;;;;;;;;;5054713;28;20032;-65
2023/02/09 15:24:36;;;;;;;13.27;8.68;;;7.30;80.50;;;;;;5053729;28;19931;-65
2023/02/09 15:27:46;;;;;;;15.35;8.70;;;7.70;80.40;;;;;;5054089;28;20044;-67
2023/02/09 15:30:51;;;;;;;12.00;8.23;;;;;;;;;;5053986;28;20467;-66
2023/02/09 15:33:55;;;;;;;14.00;7.88;;;;;;;;;;5053491;28;20492;-68
2023/02/09 15:37:00;;;;;;;12.63;7.97;;;;;;;;;;5054374;28;20047;-67
2023/02/09 15:50:37;;;;;;;14.75;9.23;;;;;;;;;;5053136;28;20409;-69
2023/02/09 15:53:41;;;;;;;20.02;11.45;;;;;;;;;;5053117;28;20052;-66
2023/02/09 15:56:46;;;;;;;17.85;10.98;;;;;;;;;;5053788;28;20039;-68
2023/02/09 15:59:52;;;;;;;16.65;10.25;;;;;;;;;;5053486;28;20040;-69
2023/02/09 16:03:00;;;;;;;13.55;7.57;;;;;;;;;;5053611;28;20504;-69
2023/02/09 16:06:16;;;;;;;12.77;8.52;;;8.90;80.00;;;;;;5053661;28;20047;-69
2023/02/09 16:09:23;;;;;;;15.90;9.68;;;7.40;78.70;;;;;;5052918;28;20048;-69
2023/02/09 16:12:28;;;;;;;15.15;9.50;;;;;;;;;;5053559;28;20056;-68
2023/02/09 16:15:35;;;;;;;23.23;12.23;;;;;;;;;;5052370;28;20048;-67
2023/02/09 16:18:39;;;;;;;15.50;10.23;;;7.60;77.80;;;;;;5052919;28;20055;-69
2023/02/09 16:21:50;;;;;;;19.17;11.63;;;7.90;79.00;;;;;;5053442;28;20381;-68
2023/02/09 16:24:54;;;;;;;30.85;14.40;;;;;;;;;;5053061;28;20056;-68
2023/02/09 16:27:59;;;;;;;40.00;21.27;;;;;;;;;;5051762;28;20044;-67
2023/02/09 16:31:03;;;;;;;31.83;16.25;;;;;;;;;;5053054;28;20052;-69
2023/02/09 16:34:13;;;;;;;28.05;17.60;;;;;;;;;;5052541;28;20496;-68
2023/02/09 16:37:22;;;;;;;15.17;9.70;;;;;;;;;;5052564;28;20376;-67
2023/02/09 16:40:31;;;;;;;16.92;8.50;;;;;;;;;;5052315;28;20044;-67
2023/02/09 16:43:36;;;;;;;16.42;9.77;;;;;;;;;;5052235;28;20039;-68
2023/02/09 16:46:40;;;;;;;17.80;10.48;;;;;;;;;;5052269;28;20047;-68
2023/02/09 16:49:59;;;;;;;25.75;12.85;;;7.60;77.50;;;;;;5051272;28;20607;-68
2023/02/09 16:53:13;;;;;;;23.10;12.40;;;7.70;76.90;;;;;;5051703;28;20535;-69
2023/02/09 16:56:18;;;;;;;15.52;8.65;;;10.40;78.00;;;;;;5052000;28;20040;-70
2023/02/09 16:59:22;;;;;;;22.05;9.80;;;;;;;;;;5051891;28;20059;-68
2023/02/09 17:02:40;;;;;;;19.80;9.07;;;9.20;78.80;;;;;;5051582;28;20040;-68
2023/02/09 17:05:55;;;;;;;17.20;8.38;;;;;;;;;;5051691;28;20492;-68
2023/02/09 17:08:59;;;;;;;17.30;9.90;;;;;;;;;;5051839;28;20044;-68
2023/02/09 17:12:03;;;;;;;14.55;8.90;;;;;;;;;;5051483;28;20048;-68
2023/02/09 17:15:11;;;;;;;21.20;10.30;;;6.90;75.40;;;;;;5051508;28;20056;-69
2023/02/09 17:18:22;;;;;;;15.57;8.27;;;7.30;74.50;;;;;;5052668;28;20396;-73
2023/02/09 17:21:30;;;;;;;31.27;16.02;;;8.70;75.30;;;;;;5052955;28;20044;-72
2023/02/09 17:24:34;;;;;;;20.75;11.40;;;;;;;;;;5053043;28;20048;-70
2023/02/09 17:27:39;;;;;;;13.18;6.70;;;;;;;;;;5058654;28;20040;-73
2023/02/09 17:30:44;;;;;;;15.27;6.68;;;7.50;75.00;;;;;;5060582;28;20055;-71
2023/02/09 17:33:53;;;;;;;10.18;6.85;;;;;;;;;;5055418;28;20122;-71
2023/02/09 17:36:58;;;;;;;13.85;7.78;;;;;;;;;;5052924;28;20052;-71
2023/02/09 17:40:02;;;;;;;21.02;10.68;;;;;;;;;;5054205;28;20039;-71
2023/02/09 17:43:08;;;;;;;24.25;11.95;;;7.40;73.60;;;;;;5054251;28;20044;-71
2023/02/09 17:46:20;;;;;;;39.05;19.58;;;8.50;73.60;;;;;;5053409;28;20052;-69
2023/02/09 17:49:24;;;;;;;18.67;8.75;;;;;;;;;;5053096;28;20056;-69
2023/02/09 17:52:29;;;;;;;15.02;8.57;;;9.40;74.10;;;;;;5053650;28;20051;-68
2023/02/09 17:55:34;;;;;;;16.25;9.63;;;;;;;;;;5054412;28;20048;-79
2023/02/09 17:58:38;;;;;;;17.55;9.00;;;;;;;;;;5053195;28;20056;-69
2023/02/09 18:01:44;;;;;;;13.63;7.10;;;8.60;74.60;;;;;;5050788;28;20392;-76
2023/02/09 18:04:48;;;;;;;8.82;5.78;;;;;;;;;;5051660;28;20052;-73
2023/02/09 18:07:53;;;;;;;59.33;32.42;;;7.60;77.70;;;;;;5051558;28;20033;-74
2023/02/09 18:10:58;;;;;;;32.25;14.35;;;;;;;;;;5051585;28;20056;-73
2023/02/09 18:14:05;;;;;;;17.15;9.50;;;;;;;;;;5051470;28;20043;-74
2023/02/09 18:17:09;;;;;;;14.65;8.85;;;;;;;;;;5050747;28;20056;-74
2023/02/09 18:20:19;;;;;;;15.73;10.27;;;7.60;73.50;;;;;;5051540;28;20393;-75